sensor_id;sensor_type;location;lat;lon;timestamp;temperature;humidity
81161;DHT22;70637;48.514;14.500;2023-06-14T00:01:41;28.80;28.10
81161;DHT22;70637;48.514;14.500;2023-06-14T00:04:11;28.80;28.10
81161;DHT22;70637;48.514;14.500;2023-06-14T00:06:36;28.80;28.00
81161;DHT22;70637;48.514;14.500;2023-06-14T00:09:03;28.80;28.10
81161;DHT22;70637;48.514;14.500;2023-06-14T00:11:31;28.80;28.10
81161;DHT22;70637;48.514;14.500;2023-06-14T00:13:56;28.80;28.10
81161;DHT22;70637;48.514;14.500;2023-06-14T00:16:24;28.80;28.20
81161;DHT22;70637;48.514;14.500;2023-06-14T00:18:49;28.80;28.10
81161;DHT22;70637;48.514;14.500;2023-06-14T00:21:18;28.80;28.10
81161;DHT22;70637;48.514;14.500;2023-06-14T00:23:44;28.80;28.10
81161;DHT22;70637;48.514;14.500;2023-06-14T00:26:10;28.80;28.20
81161;DHT22;70637;48.514;14.500;2023-06-14T00:28:35;28.80;28.20
81161;DHT22;70637;48.514;14.500;2023-06-14T00:31:01;28.80;28.20
81161;DHT22;70637;48.514;14.500;2023-06-14T00:33:27;28.80;28.20
81161;DHT22;70637;48.514;14.500;2023-06-14T00:35:52;28.80;28.20
81161;DHT22;70637;48.514;14.500;2023-06-14T00:38:21;28.80;28.20
81161;DHT22;70637;48.514;14.500;2023-06-14T00:40:46;28.80;28.20
81161;DHT22;70637;48.514;14.500;2023-06-14T00:43:12;28.80;28.30
81161;DHT22;70637;48.514;14.500;2023-06-14T00:45:38;28.80;28.30
81161;DHT22;70637;48.514;14.500;2023-06-14T00:48:04;28.70;28.30
81161;DHT22;70637;48.514;14.500;2023-06-14T00:50:31;28.70;28.20
81161;DHT22;70637;48.514;14.500;2023-06-14T00:52:59;28.80;28.30
81161;DHT22;70637;48.514;14.500;2023-06-14T00:55:26;28.70;28.30
81161;DHT22;70637;48.514;14.500;2023-06-14T00:57:53;28.70;28.30
81161;DHT22;70637;48.514;14.500;2023-06-14T01:00:19;28.70;28.30
81161;DHT22;70637;48.514;14.500;2023-06-14T01:02:44;28.70;28.30
81161;DHT22;70637;48.514;14.500;2023-06-14T01:05:10;28.70;28.30
81161;DHT22;70637;48.514;14.500;2023-06-14T01:10:37;28.70;28.30
81161;DHT22;70637;48.514;14.500;2023-06-14T01:15:35;28.70;28.40
81161;DHT22;70637;48.514;14.500;2023-06-14T01:18:03;28.70;28.40
81161;DHT22;70637;48.514;14.500;2023-06-14T01:20:31;28.70;28.40
81161;DHT22;70637;48.514;14.500;2023-06-14T01:22:58;28.70;28.40
81161;DHT22;70637;48.514;14.500;2023-06-14T01:25:24;28.70;28.50
81161;DHT22;70637;48.514;14.500;2023-06-14T01:27:53;28.70;28.40
81161;DHT22;70637;48.514;14.500;2023-06-14T01:30:20;28.70;28.40
81161;DHT22;70637;48.514;14.500;2023-06-14T01:32:47;28.70;28.50
81161;DHT22;70637;48.514;14.500;2023-06-14T01:35:13;28.70;28.50
81161;DHT22;70637;48.514;14.500;2023-06-14T01:37:40;28.70;28.40
81161;DHT22;70637;48.514;14.500;2023-06-14T01:40:07;28.70;28.50
81161;DHT22;70637;48.514;14.500;2023-06-14T01:42:37;28.70;28.50
81161;DHT22;70637;48.514;14.500;2023-06-14T01:45:07;28.70;28.50
81161;DHT22;70637;48.514;14.500;2023-06-14T01:47:33;28.70;28.50
81161;DHT22;70637;48.514;14.500;2023-06-14T01:50:00;28.70;28.50
81161;DHT22;70637;48.514;14.500;2023-06-14T01:52:25;28.70;28.50
81161;DHT22;70637;48.514;14.500;2023-06-14T01:54:53;28.70;28.50
81161;DHT22;70637;48.514;14.500;2023-06-14T01:57:19;28.80;28.60
81161;DHT22;70637;48.514;14.500;2023-06-14T01:59:46;28.70;28.50
81161;DHT22;70637;48.514;14.500;2023-06-14T02:02:14;28.70;28.50
81161;DHT22;70637;48.514;14.500;2023-06-14T02:04:40;28.70;28.50
81161;DHT22;70637;48.514;14.500;2023-06-14T02:07:06;28.70;28.50
81161;DHT22;70637;48.514;14.500;2023-06-14T02:09:31;28.70;28.60
81161;DHT22;70637;48.514;14.500;2023-06-14T02:11:57;28.70;28.60
81161;DHT22;70637;48.514;14.500;2023-06-14T02:14:23;28.70;28.60
81161;DHT22;70637;48.514;14.500;2023-06-14T02:16:49;28.70;28.60
81161;DHT22;70637;48.514;14.500;2023-06-14T02:19:19;28.70;28.60
81161;DHT22;70637;48.514;14.500;2023-06-14T02:21:46;28.70;28.70
81161;DHT22;70637;48.514;14.500;2023-06-14T02:24:13;28.70;28.70
81161;DHT22;70637;48.514;14.500;2023-06-14T02:26:39;28.70;28.60
81161;DHT22;70637;48.514;14.500;2023-06-14T02:29:05;28.70;28.70
81161;DHT22;70637;48.514;14.500;2023-06-14T02:31:31;28.70;28.70
81161;DHT22;70637;48.514;14.500;2023-06-14T02:33:57;28.70;28.70
81161;DHT22;70637;48.514;14.500;2023-06-14T02:36:23;28.70;28.70
81161;DHT22;70637;48.514;14.500;2023-06-14T02:38:49;28.70;28.80
81161;DHT22;70637;48.514;14.500;2023-06-14T02:41:15;28.70;28.70
81161;DHT22;70637;48.514;14.500;2023-06-14T02:43:40;28.70;28.70
81161;DHT22;70637;48.514;14.500;2023-06-14T02:46:07;28.70;28.80
81161;DHT22;70637;48.514;14.500;2023-06-14T02:48:33;28.70;28.80
81161;DHT22;70637;48.514;14.500;2023-06-14T02:50:58;28.70;28.80
81161;DHT22;70637;48.514;14.500;2023-06-14T02:53:24;28.70;28.80
81161;DHT22;70637;48.514;14.500;2023-06-14T02:55:50;28.70;28.80
81161;DHT22;70637;48.514;14.500;2023-06-14T02:58:15;28.70;28.80
81161;DHT22;70637;48.514;14.500;2023-06-14T03:00:42;28.70;28.80
81161;DHT22;70637;48.514;14.500;2023-06-14T03:03:08;28.70;28.90
81161;DHT22;70637;48.514;14.500;2023-06-14T03:05:45;28.70;28.90
81161;DHT22;70637;48.514;14.500;2023-06-14T03:08:13;28.70;28.90
81161;DHT22;70637;48.514;14.500;2023-06-14T03:10:48;28.70;28.90
81161;DHT22;70637;48.514;14.500;2023-06-14T03:13:14;28.70;28.90
81161;DHT22;70637;48.514;14.500;2023-06-14T03:15:46;28.70;28.90
81161;DHT22;70637;48.514;14.500;2023-06-14T03:18:16;28.70;28.90
81161;DHT22;70637;48.514;14.500;2023-06-14T03:20:44;28.70;28.90
81161;DHT22;70637;48.514;14.500;2023-06-14T03:23:12;28.70;28.90
81161;DHT22;70637;48.514;14.500;2023-06-14T03:25:37;28.70;29.00
81161;DHT22;70637;48.514;14.500;2023-06-14T03:28:06;28.70;29.00
81161;DHT22;70637;48.514;14.500;2023-06-14T03:30:31;28.70;29.00
81161;DHT22;70637;48.514;14.500;2023-06-14T03:32:57;28.70;29.00
81161;DHT22;70637;48.514;14.500;2023-06-14T03:35:28;28.70;29.00
81161;DHT22;70637;48.514;14.500;2023-06-14T03:37:53;28.70;29.00
81161;DHT22;70637;48.514;14.500;2023-06-14T03:40:21;28.70;29.00
81161;DHT22;70637;48.514;14.500;2023-06-14T03:42:47;28.70;29.10
81161;DHT22;70637;48.514;14.500;2023-06-14T03:45:13;28.70;29.00
81161;DHT22;70637;48.514;14.500;2023-06-14T03:47:38;28.70;29.00
81161;DHT22;70637;48.514;14.500;2023-06-14T03:50:04;28.70;29.00
81161;DHT22;70637;48.514;14.500;2023-06-14T03:52:31;28.70;29.10
81161;DHT22;70637;48.514;14.500;2023-06-14T03:54:57;28.70;29.10
81161;DHT22;70637;48.514;14.500;2023-06-14T03:57:23;28.70;29.10
81161;DHT22;70637;48.514;14.500;2023-06-14T03:59:49;28.70;29.10
81161;DHT22;70637;48.514;14.500;2023-06-14T04:02:15;28.70;29.10
81161;DHT22;70637;48.514;14.500;2023-06-14T04:04:41;28.70;29.20
81161;DHT22;70637;48.514;14.500;2023-06-14T04:07:10;28.70;29.10
81161;DHT22;70637;48.514;14.500;2023-06-14T04:09:37;28.70;29.20
81161;DHT22;70637;48.514;14.500;2023-06-14T04:12:03;28.70;29.10
81161;DHT22;70637;48.514;14.500;2023-06-14T04:14:29;28.70;29.10
81161;DHT22;70637;48.514;14.500;2023-06-14T04:16:56;28.70;29.10
81161;DHT22;70637;48.514;14.500;2023-06-14T04:19:22;28.70;29.20
81161;DHT22;70637;48.514;14.500;2023-06-14T04:21:47;28.70;29.20
81161;DHT22;70637;48.514;14.500;2023-06-14T04:24:13;28.70;29.10
81161;DHT22;70637;48.514;14.500;2023-06-14T04:26:42;28.80;29.30
81161;DHT22;70637;48.514;14.500;2023-06-14T04:29:13;28.70;29.20
81161;DHT22;70637;48.514;14.500;2023-06-14T04:31:43;28.70;29.20
81161;DHT22;70637;48.514;14.500;2023-06-14T04:34:10;28.80;29.20
81161;DHT22;70637;48.514;14.500;2023-06-14T04:36:42;28.80;29.30
81161;DHT22;70637;48.514;14.500;2023-06-14T04:39:18;28.80;29.30
81161;DHT22;70637;48.514;14.500;2023-06-14T04:41:44;28.80;29.30
81161;DHT22;70637;48.514;14.500;2023-06-14T04:44:10;28.80;29.30
81161;DHT22;70637;48.514;14.500;2023-06-14T04:46:36;28.80;29.30
81161;DHT22;70637;48.514;14.500;2023-06-14T04:49:17;28.80;29.30
81161;DHT22;70637;48.514;14.500;2023-06-14T04:51:46;28.80;29.40
81161;DHT22;70637;48.514;14.500;2023-06-14T04:54:16;28.80;29.40
81161;DHT22;70637;48.514;14.500;2023-06-14T04:56:44;28.80;29.40
81161;DHT22;70637;48.514;14.500;2023-06-14T04:59:11;28.80;29.40
81161;DHT22;70637;48.514;14.500;2023-06-14T05:01:37;28.80;29.40
81161;DHT22;70637;48.514;14.500;2023-06-14T05:04:03;28.80;29.40
81161;DHT22;70637;48.514;14.500;2023-06-14T05:06:29;28.80;29.40
81161;DHT22;70637;48.514;14.500;2023-06-14T05:08:55;28.80;29.40
81161;DHT22;70637;48.514;14.500;2023-06-14T05:11:21;28.80;29.40
81161;DHT22;70637;48.514;14.500;2023-06-14T05:13:49;28.80;29.40
81161;DHT22;70637;48.514;14.500;2023-06-14T05:16:16;28.80;29.40
81161;DHT22;70637;48.514;14.500;2023-06-14T05:18:45;28.80;29.40
81161;DHT22;70637;48.514;14.500;2023-06-14T05:21:11;28.80;29.40
81161;DHT22;70637;48.514;14.500;2023-06-14T05:23:36;28.80;29.50
81161;DHT22;70637;48.514;14.500;2023-06-14T05:26:02;28.80;29.50
81161;DHT22;70637;48.514;14.500;2023-06-14T05:28:29;28.80;29.60
81161;DHT22;70637;48.514;14.500;2023-06-14T05:30:56;28.80;29.60
81161;DHT22;70637;48.514;14.500;2023-06-14T05:33:21;28.80;29.70
81161;DHT22;70637;48.514;14.500;2023-06-14T05:35:47;28.90;29.70
81161;DHT22;70637;48.514;14.500;2023-06-14T05:38:13;28.90;29.80
81161;DHT22;70637;48.514;14.500;2023-06-14T05:40:38;28.80;29.80
81161;DHT22;70637;48.514;14.500;2023-06-14T05:43:04;28.90;30.00
81161;DHT22;70637;48.514;14.500;2023-06-14T05:45:29;28.90;30.00
81161;DHT22;70637;48.514;14.500;2023-06-14T05:47:55;28.90;30.00
81161;DHT22;70637;48.514;14.500;2023-06-14T05:50:21;28.90;30.00
81161;DHT22;70637;48.514;14.500;2023-06-14T05:52:47;28.90;30.00
81161;DHT22;70637;48.514;14.500;2023-06-14T05:55:12;28.90;30.00
81161;DHT22;70637;48.514;14.500;2023-06-14T05:57:38;28.90;30.10
81161;DHT22;70637;48.514;14.500;2023-06-14T06:00:05;28.90;30.20
81161;DHT22;70637;48.514;14.500;2023-06-14T06:02:40;28.90;30.50
81161;DHT22;70637;48.514;14.500;2023-06-14T06:05:06;28.90;30.50
81161;DHT22;70637;48.514;14.500;2023-06-14T06:07:32;28.90;30.70
81161;DHT22;70637;48.514;14.500;2023-06-14T06:09:58;28.90;30.80
81161;DHT22;70637;48.514;14.500;2023-06-14T06:12:23;28.90;30.90
81161;DHT22;70637;48.514;14.500;2023-06-14T06:14:49;28.90;31.00
81161;DHT22;70637;48.514;14.500;2023-06-14T06:17:14;28.90;31.00
81161;DHT22;70637;48.514;14.500;2023-06-14T06:19:40;28.90;31.00
81161;DHT22;70637;48.514;14.500;2023-06-14T06:22:06;28.90;31.00
81161;DHT22;70637;48.514;14.500;2023-06-14T06:24:32;28.90;31.00
81161;DHT22;70637;48.514;14.500;2023-06-14T06:26:57;29.00;31.10
81161;DHT22;70637;48.514;14.500;2023-06-14T06:29:23;28.90;31.00
81161;DHT22;70637;48.514;14.500;2023-06-14T06:31:51;28.90;31.10
81161;DHT22;70637;48.514;14.500;2023-06-14T06:34:16;28.90;31.20
81161;DHT22;70637;48.514;14.500;2023-06-14T06:36:42;28.90;31.10
81161;DHT22;70637;48.514;14.500;2023-06-14T06:39:08;28.90;31.20
81161;DHT22;70637;48.514;14.500;2023-06-14T06:41:37;29.00;31.30
81161;DHT22;70637;48.514;14.500;2023-06-14T06:44:03;28.90;31.20
81161;DHT22;70637;48.514;14.500;2023-06-14T06:46:29;28.90;31.20
81161;DHT22;70637;48.514;14.500;2023-06-14T06:48:54;28.90;31.30
81161;DHT22;70637;48.514;14.500;2023-06-14T06:51:22;28.90;31.40
81161;DHT22;70637;48.514;14.500;2023-06-14T06:53:53;28.90;31.40
81161;DHT22;70637;48.514;14.500;2023-06-14T06:56:21;29.00;31.50
81161;DHT22;70637;48.514;14.500;2023-06-14T06:58:49;29.00;31.50
81161;DHT22;70637;48.514;14.500;2023-06-14T07:01:15;29.00;31.40
81161;DHT22;70637;48.514;14.500;2023-06-14T07:03:41;29.00;31.40
81161;DHT22;70637;48.514;14.500;2023-06-14T07:06:07;28.90;31.30
81161;DHT22;70637;48.514;14.500;2023-06-14T07:08:32;29.00;31.10
81161;DHT22;70637;48.514;14.500;2023-06-14T07:10:58;28.90;30.90
81161;DHT22;70637;48.514;14.500;2023-06-14T07:13:23;29.00;30.80
81161;DHT22;70637;48.514;14.500;2023-06-14T07:15:49;28.90;30.70
81161;DHT22;70637;48.514;14.500;2023-06-14T07:18:15;29.00;30.60
81161;DHT22;70637;48.514;14.500;2023-06-14T07:20:41;29.00;30.50
81161;DHT22;70637;48.514;14.500;2023-06-14T07:23:08;28.90;30.30
81161;DHT22;70637;48.514;14.500;2023-06-14T07:25:34;28.90;30.20
81161;DHT22;70637;48.514;14.500;2023-06-14T07:27:59;29.00;30.10
81161;DHT22;70637;48.514;14.500;2023-06-14T07:30:25;28.90;30.00
81161;DHT22;70637;48.514;14.500;2023-06-14T07:32:53;28.90;30.00
81161;DHT22;70637;48.514;14.500;2023-06-14T07:35:19;29.00;30.00
81161;DHT22;70637;48.514;14.500;2023-06-14T07:37:45;29.00;29.80
81161;DHT22;70637;48.514;14.500;2023-06-14T07:40:13;29.00;29.80
81161;DHT22;70637;48.514;14.500;2023-06-14T07:42:39;28.90;29.70
81161;DHT22;70637;48.514;14.500;2023-06-14T07:45:05;28.90;29.60
81161;DHT22;70637;48.514;14.500;2023-06-14T07:47:31;29.00;29.60
81161;DHT22;70637;48.514;14.500;2023-06-14T07:49:57;28.90;29.50
81161;DHT22;70637;48.514;14.500;2023-06-14T07:52:23;29.00;29.50
81161;DHT22;70637;48.514;14.500;2023-06-14T07:54:48;29.00;29.50
81161;DHT22;70637;48.514;14.500;2023-06-14T07:57:14;29.00;29.50
81161;DHT22;70637;48.514;14.500;2023-06-14T07:59:40;28.90;29.50
81161;DHT22;70637;48.514;14.500;2023-06-14T08:02:06;28.90;29.40
81161;DHT22;70637;48.514;14.500;2023-06-14T08:04:32;28.90;29.50
81161;DHT22;70637;48.514;14.500;2023-06-14T08:06:58;28.90;29.50
81161;DHT22;70637;48.514;14.500;2023-06-14T08:09:24;28.90;29.40
81161;DHT22;70637;48.514;14.500;2023-06-14T08:11:50;28.90;29.30
81161;DHT22;70637;48.514;14.500;2023-06-14T08:14:16;28.90;30.00
81161;DHT22;70637;48.514;14.500;2023-06-14T08:16:42;28.90;29.10
81161;DHT22;70637;48.514;14.500;2023-06-14T08:19:07;28.90;29.10
81161;DHT22;70637;48.514;14.500;2023-06-14T08:21:33;28.90;29.00
81161;DHT22;70637;48.514;14.500;2023-06-14T08:24:02;28.90;28.90
81161;DHT22;70637;48.514;14.500;2023-06-14T08:26:28;29.00;29.00
81161;DHT22;70637;48.514;14.500;2023-06-14T08:28:57;29.00;28.90
81161;DHT22;70637;48.514;14.500;2023-06-14T08:31:23;29.00;28.80
81161;DHT22;70637;48.514;14.500;2023-06-14T08:33:49;29.00;28.80
81161;DHT22;70637;48.514;14.500;2023-06-14T08:36:15;28.90;28.70
81161;DHT22;70637;48.514;14.500;2023-06-14T08:38:41;28.90;28.70
81161;DHT22;70637;48.514;14.500;2023-06-14T08:41:08;29.00;28.70
81161;DHT22;70637;48.514;14.500;2023-06-14T08:43:37;29.00;28.70
81161;DHT22;70637;48.514;14.500;2023-06-14T08:46:03;29.00;28.70
81161;DHT22;70637;48.514;14.500;2023-06-14T08:48:31;29.00;28.70
81161;DHT22;70637;48.514;14.500;2023-06-14T08:51:02;29.10;28.70
81161;DHT22;70637;48.514;14.500;2023-06-14T08:53:33;29.00;28.70
81161;DHT22;70637;48.514;14.500;2023-06-14T08:56:00;29.10;28.70
81161;DHT22;70637;48.514;14.500;2023-06-14T08:58:33;29.00;28.60
81161;DHT22;70637;48.514;14.500;2023-06-14T09:01:02;29.10;28.70
81161;DHT22;70637;48.514;14.500;2023-06-14T09:03:28;29.10;28.60
81161;DHT22;70637;48.514;14.500;2023-06-14T09:05:59;29.10;28.60
81161;DHT22;70637;48.514;14.500;2023-06-14T09:08:26;29.10;28.50
81161;DHT22;70637;48.514;14.500;2023-06-14T09:10:56;29.10;28.50
81161;DHT22;70637;48.514;14.500;2023-06-14T09:13:21;29.10;28.40
81161;DHT22;70637;48.514;14.500;2023-06-14T09:15:47;29.10;28.50
81161;DHT22;70637;48.514;14.500;2023-06-14T09:18:13;29.10;28.50
81161;DHT22;70637;48.514;14.500;2023-06-14T09:20:40;29.10;28.70
81161;DHT22;70637;48.514;14.500;2023-06-14T09:23:06;29.10;28.90
81161;DHT22;70637;48.514;14.500;2023-06-14T09:25:41;29.10;29.00
81161;DHT22;70637;48.514;14.500;2023-06-14T09:28:07;29.20;29.40
81161;DHT22;70637;48.514;14.500;2023-06-14T09:30:33;29.20;29.60
81161;DHT22;70637;48.514;14.500;2023-06-14T09:32:59;29.20;29.70
81161;DHT22;70637;48.514;14.500;2023-06-14T09:35:25;29.20;30.00
81161;DHT22;70637;48.514;14.500;2023-06-14T09:37:51;29.20;30.00
81161;DHT22;70637;48.514;14.500;2023-06-14T09:40:23;29.20;30.10
81161;DHT22;70637;48.514;14.500;2023-06-14T09:42:49;29.20;30.20
81161;DHT22;70637;48.514;14.500;2023-06-14T09:45:17;29.20;30.10
81161;DHT22;70637;48.514;14.500;2023-06-14T09:47:48;29.20;30.20
81161;DHT22;70637;48.514;14.500;2023-06-14T09:50:14;29.20;30.10
81161;DHT22;70637;48.514;14.500;2023-06-14T09:52:42;29.20;30.10
81161;DHT22;70637;48.514;14.500;2023-06-14T09:55:12;29.20;30.10
81161;DHT22;70637;48.514;14.500;2023-06-14T09:57:41;29.20;30.10
81161;DHT22;70637;48.514;14.500;2023-06-14T10:00:08;29.20;30.10
81161;DHT22;70637;48.514;14.500;2023-06-14T10:02:37;29.20;30.10
81161;DHT22;70637;48.514;14.500;2023-06-14T10:05:09;29.20;30.20
81161;DHT22;70637;48.514;14.500;2023-06-14T10:07:59;29.20;30.10
81161;DHT22;70637;48.514;14.500;2023-06-14T10:10:25;29.20;31.00
81161;DHT22;70637;48.514;14.500;2023-06-14T10:12:51;29.20;30.00
81161;DHT22;70637;48.514;14.500;2023-06-14T10:15:27;29.20;29.80
81161;DHT22;70637;48.514;14.500;2023-06-14T10:17:57;29.20;29.70
81161;DHT22;70637;48.514;14.500;2023-06-14T10:20:42;29.20;29.60
81161;DHT22;70637;48.514;14.500;2023-06-14T10:23:15;29.20;29.70
81161;DHT22;70637;48.514;14.500;2023-06-14T10:25:42;29.20;29.60
81161;DHT22;70637;48.514;14.500;2023-06-14T10:28:21;29.20;29.40
81161;DHT22;70637;48.514;14.500;2023-06-14T10:31:09;29.10;29.30
81161;DHT22;70637;48.514;14.500;2023-06-14T10:33:56;29.10;29.20
81161;DHT22;70637;48.514;14.500;2023-06-14T10:41:30;29.10;29.00
81161;DHT22;70637;48.514;14.500;2023-06-14T10:46:49;29.10;29.00
81161;DHT22;70637;48.514;14.500;2023-06-14T10:49:18;29.10;29.00
81161;DHT22;70637;48.514;14.500;2023-06-14T10:51:51;29.10;28.90
81161;DHT22;70637;48.514;14.500;2023-06-14T10:54:17;29.10;29.00
81161;DHT22;70637;48.514;14.500;2023-06-14T10:56:52;29.10;28.90
81161;DHT22;70637;48.514;14.500;2023-06-14T10:59:20;29.20;29.00
81161;DHT22;70637;48.514;14.500;2023-06-14T11:04:51;29.10;29.00
81161;DHT22;70637;48.514;14.500;2023-06-14T11:12:48;29.10;29.20
81161;DHT22;70637;48.514;14.500;2023-06-14T11:15:14;29.10;29.30
81161;DHT22;70637;48.514;14.500;2023-06-14T11:17:52;29.10;29.20
81161;DHT22;70637;48.514;14.500;2023-06-14T11:20:25;29.10;29.30
81161;DHT22;70637;48.514;14.500;2023-06-14T11:22:52;29.10;29.30
81161;DHT22;70637;48.514;14.500;2023-06-14T11:25:18;29.10;29.30
81161;DHT22;70637;48.514;14.500;2023-06-14T11:27:44;29.10;29.30
81161;DHT22;70637;48.514;14.500;2023-06-14T11:30:11;29.20;29.40
81161;DHT22;70637;48.514;14.500;2023-06-14T11:32:37;29.20;29.40
81161;DHT22;70637;48.514;14.500;2023-06-14T11:35:04;29.20;29.40
81161;DHT22;70637;48.514;14.500;2023-06-14T11:37:31;29.20;29.40
81161;DHT22;70637;48.514;14.500;2023-06-14T11:40:00;29.20;29.40
81161;DHT22;70637;48.514;14.500;2023-06-14T11:42:27;29.20;29.40
81161;DHT22;70637;48.514;14.500;2023-06-14T11:44:54;29.20;29.40
81161;DHT22;70637;48.514;14.500;2023-06-14T11:47:19;29.20;29.40
81161;DHT22;70637;48.514;14.500;2023-06-14T11:49:47;29.20;29.40
81161;DHT22;70637;48.514;14.500;2023-06-14T11:52:13;29.20;29.60
81161;DHT22;70637;48.514;14.500;2023-06-14T11:54:39;29.20;29.60
81161;DHT22;70637;48.514;14.500;2023-06-14T11:57:07;29.20;29.60
81161;DHT22;70637;48.514;14.500;2023-06-14T11:59:42;29.20;29.60
81161;DHT22;70637;48.514;14.500;2023-06-14T12:02:10;29.20;29.70
81161;DHT22;70637;48.514;14.500;2023-06-14T12:04:41;29.20;29.60
81161;DHT22;70637;48.514;14.500;2023-06-14T12:07:11;29.30;29.70
81161;DHT22;70637;48.514;14.500;2023-06-14T12:12:20;29.30;30.50
81161;DHT22;70637;48.514;14.500;2023-06-14T12:14:47;29.30;29.70
81161;DHT22;70637;48.514;14.500;2023-06-14T12:17:12;29.30;29.70
81161;DHT22;70637;48.514;14.500;2023-06-14T12:19:42;29.30;29.70
81161;DHT22;70637;48.514;14.500;2023-06-14T12:22:13;29.30;29.70
81161;DHT22;70637;48.514;14.500;2023-06-14T12:24:42;29.30;29.70
81161;DHT22;70637;48.514;14.500;2023-06-14T12:27:08;29.30;29.70
81161;DHT22;70637;48.514;14.500;2023-06-14T12:29:33;29.30;29.70
81161;DHT22;70637;48.514;14.500;2023-06-14T12:32:00;29.30;29.70
81161;DHT22;70637;48.514;14.500;2023-06-14T12:34:26;29.30;29.70
81161;DHT22;70637;48.514;14.500;2023-06-14T12:36:55;29.30;29.70
81161;DHT22;70637;48.514;14.500;2023-06-14T12:39:21;29.20;29.70
81161;DHT22;70637;48.514;14.500;2023-06-14T12:41:47;29.30;29.80
81161;DHT22;70637;48.514;14.500;2023-06-14T12:44:14;29.30;29.80
81161;DHT22;70637;48.514;14.500;2023-06-14T12:46:41;29.20;29.90
81161;DHT22;70637;48.514;14.500;2023-06-14T12:49:08;29.20;29.80
81161;DHT22;70637;48.514;14.500;2023-06-14T12:51:34;29.20;29.90
81161;DHT22;70637;48.514;14.500;2023-06-14T12:54:00;29.20;29.90
81161;DHT22;70637;48.514;14.500;2023-06-14T12:56:26;29.20;29.90
81161;DHT22;70637;48.514;14.500;2023-06-14T12:58:51;29.20;29.90
81161;DHT22;70637;48.514;14.500;2023-06-14T13:01:17;29.20;29.90
81161;DHT22;70637;48.514;14.500;2023-06-14T13:03:43;29.20;29.80
81161;DHT22;70637;48.514;14.500;2023-06-14T13:06:08;29.20;29.90
81161;DHT22;70637;48.514;14.500;2023-06-14T13:08:34;29.20;29.80
81161;DHT22;70637;48.514;14.500;2023-06-14T13:11:00;29.20;29.90
81161;DHT22;70637;48.514;14.500;2023-06-14T13:13:25;29.20;29.90
81161;DHT22;70637;48.514;14.500;2023-06-14T13:15:51;29.20;29.90
81161;DHT22;70637;48.514;14.500;2023-06-14T13:18:17;29.20;30.00
81161;DHT22;70637;48.514;14.500;2023-06-14T13:20:42;29.30;30.00
81161;DHT22;70637;48.514;14.500;2023-06-14T13:23:09;29.20;30.00
81161;DHT22;70637;48.514;14.500;2023-06-14T13:25:36;29.20;30.00
81161;DHT22;70637;48.514;14.500;2023-06-14T13:28:02;29.30;30.00
81161;DHT22;70637;48.514;14.500;2023-06-14T13:30:27;29.20;30.00
81161;DHT22;70637;48.514;14.500;2023-06-14T13:32:53;29.30;30.00
81161;DHT22;70637;48.514;14.500;2023-06-14T13:35:19;29.30;30.00
81161;DHT22;70637;48.514;14.500;2023-06-14T13:37:45;29.20;29.80
81161;DHT22;70637;48.514;14.500;2023-06-14T13:40:11;29.20;29.70
81161;DHT22;70637;48.514;14.500;2023-06-14T13:42:37;29.20;29.60
81161;DHT22;70637;48.514;14.500;2023-06-14T13:45:04;29.20;29.60
81161;DHT22;70637;48.514;14.500;2023-06-14T13:47:30;29.20;29.60
81161;DHT22;70637;48.514;14.500;2023-06-14T13:49:56;29.20;29.50
81161;DHT22;70637;48.514;14.500;2023-06-14T13:52:22;29.20;29.50
81161;DHT22;70637;48.514;14.500;2023-06-14T13:54:48;29.20;29.40
81161;DHT22;70637;48.514;14.500;2023-06-14T13:57:13;29.20;29.40
81161;DHT22;70637;48.514;14.500;2023-06-14T13:59:40;29.20;29.40
81161;DHT22;70637;48.514;14.500;2023-06-14T14:02:06;29.20;29.40
81161;DHT22;70637;48.514;14.500;2023-06-14T14:04:33;29.20;29.40
81161;DHT22;70637;48.514;14.500;2023-06-14T14:06:59;29.20;30.20
81161;DHT22;70637;48.514;14.500;2023-06-14T14:09:25;29.20;29.30
81161;DHT22;70637;48.514;14.500;2023-06-14T14:11:50;29.20;29.40
81161;DHT22;70637;48.514;14.500;2023-06-14T14:14:16;29.20;29.40
81161;DHT22;70637;48.514;14.500;2023-06-14T14:16:42;29.20;29.40
81161;DHT22;70637;48.514;14.500;2023-06-14T14:19:09;29.20;29.30
81161;DHT22;70637;48.514;14.500;2023-06-14T14:21:35;29.20;29.40
81161;DHT22;70637;48.514;14.500;2023-06-14T14:24:01;29.10;29.30
81161;DHT22;70637;48.514;14.500;2023-06-14T14:26:27;29.10;29.30
81161;DHT22;70637;48.514;14.500;2023-06-14T14:28:53;29.20;29.40
81161;DHT22;70637;48.514;14.500;2023-06-14T14:31:18;29.10;29.30
81161;DHT22;70637;48.514;14.500;2023-06-14T14:33:44;29.10;29.30
81161;DHT22;70637;48.514;14.500;2023-06-14T14:36:10;29.10;29.30
81161;DHT22;70637;48.514;14.500;2023-06-14T14:38:35;29.10;29.30
81161;DHT22;70637;48.514;14.500;2023-06-14T14:41:01;29.10;29.30
81161;DHT22;70637;48.514;14.500;2023-06-14T14:43:27;29.10;29.30
81161;DHT22;70637;48.514;14.500;2023-06-14T14:45:55;29.10;29.40
81161;DHT22;70637;48.514;14.500;2023-06-14T14:48:21;29.10;29.40
81161;DHT22;70637;48.514;14.500;2023-06-14T14:50:46;29.10;29.50
81161;DHT22;70637;48.514;14.500;2023-06-14T14:53:13;29.10;29.50
81161;DHT22;70637;48.514;14.500;2023-06-14T14:55:42;29.10;29.50
81161;DHT22;70637;48.514;14.500;2023-06-14T14:58:08;29.10;29.50
81161;DHT22;70637;48.514;14.500;2023-06-14T15:00:34;29.10;29.50
81161;DHT22;70637;48.514;14.500;2023-06-14T15:03:00;29.10;29.50
81161;DHT22;70637;48.514;14.500;2023-06-14T15:05:25;29.10;29.50
81161;DHT22;70637;48.514;14.500;2023-06-14T15:07:51;29.10;29.50
81161;DHT22;70637;48.514;14.500;2023-06-14T15:10:16;29.10;29.50
81161;DHT22;70637;48.514;14.500;2023-06-14T15:12:42;29.10;29.50
81161;DHT22;70637;48.514;14.500;2023-06-14T15:15:08;29.10;29.50
81161;DHT22;70637;48.514;14.500;2023-06-14T15:17:35;29.10;29.50
81161;DHT22;70637;48.514;14.500;2023-06-14T15:20:00;29.20;29.60
81161;DHT22;70637;48.514;14.500;2023-06-14T15:22:26;29.10;29.50
81161;DHT22;70637;48.514;14.500;2023-06-14T15:24:52;29.10;29.50
81161;DHT22;70637;48.514;14.500;2023-06-14T15:27:18;29.20;29.60
81161;DHT22;70637;48.514;14.500;2023-06-14T15:29:44;29.10;29.50
81161;DHT22;70637;48.514;14.500;2023-06-14T15:32:10;29.10;29.50
81161;DHT22;70637;48.514;14.500;2023-06-14T15:34:36;29.10;29.50
81161;DHT22;70637;48.514;14.500;2023-06-14T15:37:07;29.10;29.60
81161;DHT22;70637;48.514;14.500;2023-06-14T15:39:33;29.10;29.60